sensor_id;sensor_type;location;lat;lon;timestamp;temperature;humidity
10828;DHT22;5467;59.334;13.512;2023-02-28T00:02:13;0.10;99.90
10828;DHT22;5467;59.334;13.512;2023-02-28T00:04:40;0.10;99.90
10828;DHT22;5467;59.334;13.512;2023-02-28T00:07:09;0.10;99.90
10828;DHT22;5467;59.334;13.512;2023-02-28T00:09:36;0.20;99.90
10828;DHT22;5467;59.334;13.512;2023-02-28T00:12:03;0.10;99.90
10828;DHT22;5467;59.334;13.512;2023-02-28T00:14:35;0.00;99.90
10828;DHT22;5467;59.334;13.512;2023-02-28T00:17:02;-0.10;99.90
10828;DHT22;5467;59.334;13.512;2023-02-28T00:19:29;-0.10;99.90
10828;DHT22;5467;59.334;13.512;2023-02-28T00:42:11;-0.50;99.90
10828;DHT22;5467;59.334;13.512;2023-02-28T00:58:20;-0.10;99.90
10828;DHT22;5467;59.334;13.512;2023-02-28T01:00:47;-0.20;99.90
10828;DHT22;5467;59.334;13.512;2023-02-28T01:03:15;-0.20;99.90
10828;DHT22;5467;59.334;13.512;2023-02-28T01:05:43;-0.30;99.90
10828;DHT22;5467;59.334;13.512;2023-02-28T01:08:10;-0.30;99.90
10828;DHT22;5467;59.334;13.512;2023-02-28T01:10:38;-0.30;99.90
10828;DHT22;5467;59.334;13.512;2023-02-28T01:13:05;-0.30;99.90
10828;DHT22;5467;59.334;13.512;2023-02-28T01:15:33;-0.30;99.90
10828;DHT22;5467;59.334;13.512;2023-02-28T01:18:00;-0.30;99.90
10828;DHT22;5467;59.334;13.512;2023-02-28T01:20:28;-0.20;99.90
10828;DHT22;5467;59.334;13.512;2023-02-28T01:22:55;-0.20;99.90
10828;DHT22;5467;59.334;13.512;2023-02-28T01:25:22;-0.20;99.90
10828;DHT22;5467;59.334;13.512;2023-02-28T01:27:49;-0.30;99.90
10828;DHT22;5467;59.334;13.512;2023-02-28T01:30:16;-0.30;99.90
10828;DHT22;5467;59.334;13.512;2023-02-28T01:32:45;-0.40;99.90
10828;DHT22;5467;59.334;13.512;2023-02-28T01:35:12;-0.30;99.90
10828;DHT22;5467;59.334;13.512;2023-02-28T01:37:39;-0.30;99.90
10828;DHT22;5467;59.334;13.512;2023-02-28T01:40:07;-0.30;99.90
10828;DHT22;5467;59.334;13.512;2023-02-28T01:42:35;-0.30;99.90
10828;DHT22;5467;59.334;13.512;2023-02-28T01:45:18;-0.30;99.90
10828;DHT22;5467;59.334;13.512;2023-02-28T01:47:49;-0.20;99.90
10828;DHT22;5467;59.334;13.512;2023-02-28T01:50:20;-0.10;99.90
10828;DHT22;5467;59.334;13.512;2023-02-28T01:52:48;0.10;99.90
10828;DHT22;5467;59.334;13.512;2023-02-28T01:55:19;0.20;99.90
10828;DHT22;5467;59.334;13.512;2023-02-28T01:57:51;0.40;99.90
10828;DHT22;5467;59.334;13.512;2023-02-28T02:00:22;0.50;99.90
10828;DHT22;5467;59.334;13.512;2023-02-28T02:02:53;0.60;99.90
10828;DHT22;5467;59.334;13.512;2023-02-28T02:05:23;0.50;99.90
10828;DHT22;5467;59.334;13.512;2023-02-28T02:07:54;0.50;99.90
10828;DHT22;5467;59.334;13.512;2023-02-28T02:10:26;0.60;99.90
10828;DHT22;5467;59.334;13.512;2023-02-28T02:13:08;0.70;99.90
10828;DHT22;5467;59.334;13.512;2023-02-28T02:15:40;0.80;99.90
10828;DHT22;5467;59.334;13.512;2023-02-28T02:18:27;0.90;99.90
10828;DHT22;5467;59.334;13.512;2023-02-28T02:24:34;0.80;99.90
10828;DHT22;5467;59.334;13.512;2023-02-28T02:27:16;0.70;99.90
10828;DHT22;5467;59.334;13.512;2023-02-28T02:33:16;0.80;99.90
10828;DHT22;5467;59.334;13.512;2023-02-28T02:35:52;0.90;99.90
10828;DHT22;5467;59.334;13.512;2023-02-28T02:38:30;0.80;99.90
10828;DHT22;5467;59.334;13.512;2023-02-28T02:41:06;0.90;99.90
10828;DHT22;5467;59.334;13.512;2023-02-28T02:43:38;0.80;99.90
10828;DHT22;5467;59.334;13.512;2023-02-28T02:46:12;0.60;99.90
10828;DHT22;5467;59.334;13.512;2023-02-28T02:48:42;0.50;99.90
10828;DHT22;5467;59.334;13.512;2023-02-28T02:51:14;0.60;99.90
10828;DHT22;5467;59.334;13.512;2023-02-28T02:53:45;0.70;99.90
10828;DHT22;5467;59.334;13.512;2023-02-28T02:56:15;0.60;99.90
10828;DHT22;5467;59.334;13.512;2023-02-28T02:58:47;0.50;99.90
10828;DHT22;5467;59.334;13.512;2023-02-28T03:01:19;0.40;99.90
10828;DHT22;5467;59.334;13.512;2023-02-28T03:03:55;0.50;99.90
10828;DHT22;5467;59.334;13.512;2023-02-28T03:06:25;0.50;99.90
10828;DHT22;5467;59.334;13.512;2023-02-28T03:08:53;0.30;99.90
10828;DHT22;5467;59.334;13.512;2023-02-28T03:11:20;0.30;99.90
10828;DHT22;5467;59.334;13.512;2023-02-28T03:13:58;0.30;99.90
10828;DHT22;5467;59.334;13.512;2023-02-28T03:16:33;0.40;99.90
10828;DHT22;5467;59.334;13.512;2023-02-28T03:19:30;0.20;99.90
10828;DHT22;5467;59.334;13.512;2023-02-28T03:22:14;0.20;99.90
10828;DHT22;5467;59.334;13.512;2023-02-28T03:24:45;0.30;99.90
10828;DHT22;5467;59.334;13.512;2023-02-28T03:27:20;0.20;99.90
10828;DHT22;5467;59.334;13.512;2023-02-28T03:29:54;0.10;99.90
10828;DHT22;5467;59.334;13.512;2023-02-28T03:32:27;0.00;99.90
10828;DHT22;5467;59.334;13.512;2023-02-28T03:34:59;0.00;99.90
10828;DHT22;5467;59.334;13.512;2023-02-28T03:37:30;-0.10;99.90
10828;DHT22;5467;59.334;13.512;2023-02-28T03:40:05;-0.20;99.90
10828;DHT22;5467;59.334;13.512;2023-02-28T03:42:36;-0.30;99.90
10828;DHT22;5467;59.334;13.512;2023-02-28T03:45:05;-0.20;99.90
10828;DHT22;5467;59.334;13.512;2023-02-28T03:47:39;-0.20;99.90
10828;DHT22;5467;59.334;13.512;2023-02-28T03:50:10;-0.40;99.90
10828;DHT22;5467;59.334;13.512;2023-02-28T03:52:44;-0.50;99.90
10828;DHT22;5467;59.334;13.512;2023-02-28T03:55:13;-0.70;99.90
10828;DHT22;5467;59.334;13.512;2023-02-28T03:57:47;-0.90;99.90
10828;DHT22;5467;59.334;13.512;2023-02-28T04:00:20;-1.00;99.90
10828;DHT22;5467;59.334;13.512;2023-02-28T04:02:48;-0.90;99.90
10828;DHT22;5467;59.334;13.512;2023-02-28T04:05:18;-0.90;99.90
10828;DHT22;5467;59.334;13.512;2023-02-28T04:07:47;-0.80;99.90
10828;DHT22;5467;59.334;13.512;2023-02-28T04:10:15;-0.80;99.90
10828;DHT22;5467;59.334;13.512;2023-02-28T04:12:42;-0.90;99.90
10828;DHT22;5467;59.334;13.512;2023-02-28T04:15:10;-0.90;99.90
10828;DHT22;5467;59.334;13.512;2023-02-28T04:17:37;-0.80;99.90
10828;DHT22;5467;59.334;13.512;2023-02-28T04:20:05;-0.90;99.90
10828;DHT22;5467;59.334;13.512;2023-02-28T04:22:35;-1.00;99.90
10828;DHT22;5467;59.334;13.512;2023-02-28T04:25:05;-1.10;99.90
10828;DHT22;5467;59.334;13.512;2023-02-28T04:27:33;-1.20;99.90
10828;DHT22;5467;59.334;13.512;2023-02-28T04:30:00;-1.10;99.90
10828;DHT22;5467;59.334;13.512;2023-02-28T04:32:27;-1.20;99.90
10828;DHT22;5467;59.334;13.512;2023-02-28T04:34:54;-1.10;99.90
10828;DHT22;5467;59.334;13.512;2023-02-28T04:37:21;-1.10;99.90
10828;DHT22;5467;59.334;13.512;2023-02-28T04:39:53;-1.20;99.90
10828;DHT22;5467;59.334;13.512;2023-02-28T04:42:22;-1.10;99.90
10828;DHT22;5467;59.334;13.512;2023-02-28T04:44:49;-1.10;99.90
10828;DHT22;5467;59.334;13.512;2023-02-28T04:47:16;-1.10;99.90
10828;DHT22;5467;59.334;13.512;2023-02-28T04:49:43;-1.20;99.90
10828;DHT22;5467;59.334;13.512;2023-02-28T04:52:10;-1.20;99.90
10828;DHT22;5467;59.334;13.512;2023-02-28T04:54:38;-1.20;99.90
10828;DHT22;5467;59.334;13.512;2023-02-28T04:57:05;-1.30;99.90
10828;DHT22;5467;59.334;13.512;2023-02-28T04:59:34;-1.40;99.90
10828;DHT22;5467;59.334;13.512;2023-02-28T05:02:01;-1.40;99.90
10828;DHT22;5467;59.334;13.512;2023-02-28T05:04:32;-1.50;99.90
10828;DHT22;5467;59.334;13.512;2023-02-28T05:07:00;-1.50;99.90
10828;DHT22;5467;59.334;13.512;2023-02-28T05:09:27;-1.50;99.90
10828;DHT22;5467;59.334;13.512;2023-02-28T05:11:55;-1.50;99.90
10828;DHT22;5467;59.334;13.512;2023-02-28T05:14:22;-1.50;99.90
10828;DHT22;5467;59.334;13.512;2023-02-28T05:16:50;-1.40;99.90
10828;DHT22;5467;59.334;13.512;2023-02-28T05:19:17;-1.30;99.90
10828;DHT22;5467;59.334;13.512;2023-02-28T05:21:50;-1.30;99.90
10828;DHT22;5467;59.334;13.512;2023-02-28T05:24:18;-1.30;99.90
10828;DHT22;5467;59.334;13.512;2023-02-28T05:26:49;-1.30;99.90
10828;DHT22;5467;59.334;13.512;2023-02-28T05:29:17;-1.20;99.90
10828;DHT22;5467;59.334;13.512;2023-02-28T05:31:44;-1.20;99.90
10828;DHT22;5467;59.334;13.512;2023-02-28T05:34:13;-1.10;99.90
10828;DHT22;5467;59.334;13.512;2023-02-28T05:36:41;-1.10;99.90
10828;DHT22;5467;59.334;13.512;2023-02-28T05:39:08;-1.10;99.90
10828;DHT22;5467;59.334;13.512;2023-02-28T05:41:39;-1.10;99.90
10828;DHT22;5467;59.334;13.512;2023-02-28T05:44:07;-1.10;99.90
10828;DHT22;5467;59.334;13.512;2023-02-28T05:46:34;-1.10;99.90
10828;DHT22;5467;59.334;13.512;2023-02-28T05:49:02;-1.10;99.90
10828;DHT22;5467;59.334;13.512;2023-02-28T05:51:31;-1.10;99.90
10828;DHT22;5467;59.334;13.512;2023-02-28T05:54:00;-1.30;99.90
10828;DHT22;5467;59.334;13.512;2023-02-28T05:56:28;-1.30;99.90
10828;DHT22;5467;59.334;13.512;2023-02-28T05:58:55;-1.30;99.90
10828;DHT22;5467;59.334;13.512;2023-02-28T06:01:26;-1.30;99.90
10828;DHT22;5467;59.334;13.512;2023-02-28T06:03:58;-1.30;99.90
10828;DHT22;5467;59.334;13.512;2023-02-28T06:06:25;-1.40;99.90
10828;DHT22;5467;59.334;13.512;2023-02-28T06:08:53;-1.40;99.90
10828;DHT22;5467;59.334;13.512;2023-02-28T06:11:21;-1.40;99.90
10828;DHT22;5467;59.334;13.512;2023-02-28T06:13:53;-1.30;99.90
10828;DHT22;5467;59.334;13.512;2023-02-28T06:16:21;-1.30;99.90
10828;DHT22;5467;59.334;13.512;2023-02-28T06:18:48;-1.30;99.90
10828;DHT22;5467;59.334;13.512;2023-02-28T06:21:15;-1.40;99.90
10828;DHT22;5467;59.334;13.512;2023-02-28T06:23:42;-1.40;99.90
10828;DHT22;5467;59.334;13.512;2023-02-28T06:26:11;-1.40;99.90
10828;DHT22;5467;59.334;13.512;2023-02-28T06:28:38;-1.40;99.90
10828;DHT22;5467;59.334;13.512;2023-02-28T06:31:07;-1.40;99.90
10828;DHT22;5467;59.334;13.512;2023-02-28T06:33:35;-1.30;99.90
10828;DHT22;5467;59.334;13.512;2023-02-28T06:36:03;-1.40;99.90
10828;DHT22;5467;59.334;13.512;2023-02-28T06:38:30;-1.40;99.90
10828;DHT22;5467;59.334;13.512;2023-02-28T06:40:58;-1.40;99.90
10828;DHT22;5467;59.334;13.512;2023-02-28T06:43:30;-1.20;99.90
10828;DHT22;5467;59.334;13.512;2023-02-28T06:45:59;-1.10;99.90
10828;DHT22;5467;59.334;13.512;2023-02-28T06:48:27;-1.00;99.90
10828;DHT22;5467;59.334;13.512;2023-02-28T06:51:01;-1.00;99.90
10828;DHT22;5467;59.334;13.512;2023-02-28T06:53:29;-1.00;99.90
10828;DHT22;5467;59.334;13.512;2023-02-28T06:55:56;-0.90;99.90
10828;DHT22;5467;59.334;13.512;2023-02-28T06:58:23;-0.80;99.90
10828;DHT22;5467;59.334;13.512;2023-02-28T07:00:52;-0.70;99.90
10828;DHT22;5467;59.334;13.512;2023-02-28T07:03:20;-0.70;99.90
10828;DHT22;5467;59.334;13.512;2023-02-28T07:05:47;-0.70;99.90
10828;DHT22;5467;59.334;13.512;2023-02-28T07:08:14;-0.70;99.90
10828;DHT22;5467;59.334;13.512;2023-02-28T07:10:41;-0.60;99.90
10828;DHT22;5467;59.334;13.512;2023-02-28T07:13:09;-0.60;99.90
10828;DHT22;5467;59.334;13.512;2023-02-28T07:15:37;-0.50;99.90
10828;DHT22;5467;59.334;13.512;2023-02-28T07:18:06;-0.40;99.90
10828;DHT22;5467;59.334;13.512;2023-02-28T07:20:33;-0.40;99.90
10828;DHT22;5467;59.334;13.512;2023-02-28T07:23:00;-0.30;99.90
10828;DHT22;5467;59.334;13.512;2023-02-28T07:25:28;-0.20;99.90
10828;DHT22;5467;59.334;13.512;2023-02-28T07:27:56;-0.20;99.90
10828;DHT22;5467;59.334;13.512;2023-02-28T07:30:24;-0.20;99.90
10828;DHT22;5467;59.334;13.512;2023-02-28T07:32:51;-0.10;99.90
10828;DHT22;5467;59.334;13.512;2023-02-28T07:35:21;0.00;99.90
10828;DHT22;5467;59.334;13.512;2023-02-28T07:37:49;0.10;99.90
10828;DHT22;5467;59.334;13.512;2023-02-28T07:40:16;0.20;99.90
10828;DHT22;5467;59.334;13.512;2023-02-28T07:42:44;0.20;99.90
10828;DHT22;5467;59.334;13.512;2023-02-28T07:45:11;0.30;99.90
10828;DHT22;5467;59.334;13.512;2023-02-28T07:47:39;0.30;99.90
10828;DHT22;5467;59.334;13.512;2023-02-28T07:50:08;0.40;99.90
10828;DHT22;5467;59.334;13.512;2023-02-28T07:52:38;0.40;99.90
10828;DHT22;5467;59.334;13.512;2023-02-28T07:55:07;0.50;99.90
10828;DHT22;5467;59.334;13.512;2023-02-28T07:57:35;0.70;99.90
10828;DHT22;5467;59.334;13.512;2023-02-28T08:00:03;0.80;99.90
10828;DHT22;5467;59.334;13.512;2023-02-28T08:02:30;0.90;99.90
10828;DHT22;5467;59.334;13.512;2023-02-28T08:04:58;1.00;99.90
10828;DHT22;5467;59.334;13.512;2023-02-28T08:07:26;1.20;99.90
10828;DHT22;5467;59.334;13.512;2023-02-28T08:09:55;1.30;99.90
10828;DHT22;5467;59.334;13.512;2023-02-28T08:12:22;1.50;99.90
10828;DHT22;5467;59.334;13.512;2023-02-28T08:14:49;1.60;99.90
10828;DHT22;5467;59.334;13.512;2023-02-28T08:17:16;1.80;99.90
10828;DHT22;5467;59.334;13.512;2023-02-28T08:19:45;1.80;99.90
10828;DHT22;5467;59.334;13.512;2023-02-28T08:22:12;1.80;99.90
10828;DHT22;5467;59.334;13.512;2023-02-28T08:24:41;1.90;99.90
10828;DHT22;5467;59.334;13.512;2023-02-28T08:27:10;1.90;99.90
10828;DHT22;5467;59.334;13.512;2023-02-28T08:29:38;2.10;99.90
10828;DHT22;5467;59.334;13.512;2023-02-28T08:32:06;2.10;99.90
10828;DHT22;5467;59.334;13.512;2023-02-28T08:34:33;2.30;99.90
10828;DHT22;5467;59.334;13.512;2023-02-28T08:37:01;2.40;99.90
10828;DHT22;5467;59.334;13.512;2023-02-28T08:39:28;2.50;99.90
10828;DHT22;5467;59.334;13.512;2023-02-28T08:41:55;2.60;99.90
10828;DHT22;5467;59.334;13.512;2023-02-28T08:44:23;2.90;99.90
10828;DHT22;5467;59.334;13.512;2023-02-28T08:46:50;3.00;99.90
10828;DHT22;5467;59.334;13.512;2023-02-28T08:49:17;3.20;99.90
10828;DHT22;5467;59.334;13.512;2023-02-28T08:51:45;3.30;99.90
10828;DHT22;5467;59.334;13.512;2023-02-28T08:54:12;3.40;99.90
10828;DHT22;5467;59.334;13.512;2023-02-28T08:56:41;3.50;99.90
10828;DHT22;5467;59.334;13.512;2023-02-28T08:59:09;3.60;99.90
10828;DHT22;5467;59.334;13.512;2023-02-28T09:01:38;3.70;99.90
10828;DHT22;5467;59.334;13.512;2023-02-28T09:04:07;3.90;99.90
10828;DHT22;5467;59.334;13.512;2023-02-28T09:06:35;4.00;99.90
10828;DHT22;5467;59.334;13.512;2023-02-28T09:09:02;4.00;99.90
10828;DHT22;5467;59.334;13.512;2023-02-28T09:11:32;4.30;99.90
10828;DHT22;5467;59.334;13.512;2023-02-28T09:13:59;4.50;99.90
10828;DHT22;5467;59.334;13.512;2023-02-28T09:16:29;4.70;99.90
10828;DHT22;5467;59.334;13.512;2023-02-28T09:18:58;4.70;99.90
10828;DHT22;5467;59.334;13.512;2023-02-28T09:21:26;4.80;99.90
10828;DHT22;5467;59.334;13.512;2023-02-28T09:23:53;4.90;99.90
10828;DHT22;5467;59.334;13.512;2023-02-28T09:26:22;5.10;99.90
10828;DHT22;5467;59.334;13.512;2023-02-28T09:28:49;5.20;99.90
10828;DHT22;5467;59.334;13.512;2023-02-28T09:31:18;5.40;99.90
10828;DHT22;5467;59.334;13.512;2023-02-28T09:33:47;5.40;99.90
10828;DHT22;5467;59.334;13.512;2023-02-28T09:36:16;5.30;99.90
10828;DHT22;5467;59.334;13.512;2023-02-28T09:38:43;5.20;99.90
10828;DHT22;5467;59.334;13.512;2023-02-28T09:41:13;5.30;99.90
10828;DHT22;5467;59.334;13.512;2023-02-28T09:43:45;5.30;99.90
10828;DHT22;5467;59.334;13.512;2023-02-28T09:46:22;5.40;99.90
10828;DHT22;5467;59.334;13.512;2023-02-28T09:48:52;5.40;99.90
10828;DHT22;5467;59.334;13.512;2023-02-28T09:51:36;5.40;99.90
10828;DHT22;5467;59.334;13.512;2023-02-28T09:54:05;5.60;99.90
10828;DHT22;5467;59.334;13.512;2023-02-28T09:56:37;5.60;99.90
10828;DHT22;5467;59.334;13.512;2023-02-28T09:59:13;5.90;99.90
10828;DHT22;5467;59.334;13.512;2023-02-28T10:01:47;6.00;99.90
10828;DHT22;5467;59.334;13.512;2023-02-28T10:04:25;6.00;99.90
10828;DHT22;5467;59.334;13.512;2023-02-28T10:06:57;6.10;99.90
10828;DHT22;5467;59.334;13.512;2023-02-28T10:09:26;6.20;99.90
10828;DHT22;5467;59.334;13.512;2023-02-28T10:11:57;6.30;99.90
10828;DHT22;5467;59.334;13.512;2023-02-28T10:14:28;6.40;99.90
10828;DHT22;5467;59.334;13.512;2023-02-28T10:16:59;6.40;99.90
10828;DHT22;5467;59.334;13.512;2023-02-28T10:19:31;6.40;99.90
10828;DHT22;5467;59.334;13.512;2023-02-28T10:22:05;6.40;99.90
10828;DHT22;5467;59.334;13.512;2023-02-28T10:24:37;6.50;99.90
10828;DHT22;5467;59.334;13.512;2023-02-28T10:27:13;6.50;99.90
10828;DHT22;5467;59.334;13.512;2023-02-28T10:29:43;6.50;99.90
10828;DHT22;5467;59.334;13.512;2023-02-28T10:32:13;6.40;99.90
10828;DHT22;5467;59.334;13.512;2023-02-28T10:34:41;6.50;99.90
10828;DHT22;5467;59.334;13.512;2023-02-28T10:37:11;6.60;99.90
10828;DHT22;5467;59.334;13.512;2023-02-28T10:39:41;6.70;99.90
10828;DHT22;5467;59.334;13.512;2023-02-28T10:42:23;6.90;99.90
10828;DHT22;5467;59.334;13.512;2023-02-28T10:45:09;6.80;99.90
10828;DHT22;5467;59.334;13.512;2023-02-28T10:47:49;6.90;99.90
10828;DHT22;5467;59.334;13.512;2023-02-28T10:50:29;6.90;99.90
10828;DHT22;5467;59.334;13.512;2023-02-28T10:53:08;6.90;99.90
10828;DHT22;5467;59.334;13.512;2023-02-28T10:55:40;7.00;99.90
10828;DHT22;5467;59.334;13.512;2023-02-28T10:58:21;7.10;99.90
10828;DHT22;5467;59.334;13.512;2023-02-28T11:00:49;7.20;99.90
10828;DHT22;5467;59.334;13.512;2023-02-28T11:03:29;7.10;99.90
10828;DHT22;5467;59.334;13.512;2023-02-28T11:05:57;7.20;99.90
10828;DHT22;5467;59.334;13.512;2023-02-28T11:08:25;7.20;99.90
10828;DHT22;5467;59.334;13.512;2023-02-28T11:10:57;7.20;99.90
10828;DHT22;5467;59.334;13.512;2023-02-28T11:13:29;7.30;99.90
10828;DHT22;5467;59.334;13.512;2023-02-28T11:16:02;7.30;99.90
10828;DHT22;5467;59.334;13.512;2023-02-28T11:18:32;7.30;99.90
10828;DHT22;5467;59.334;13.512;2023-02-28T11:21:03;7.40;99.90
10828;DHT22;5467;59.334;13.512;2023-02-28T11:23:34;7.50;99.90
10828;DHT22;5467;59.334;13.512;2023-02-28T11:26:04;7.50;99.90
10828;DHT22;5467;59.334;13.512;2023-02-28T11:28:37;7.60;99.90
10828;DHT22;5467;59.334;13.512;2023-02-28T11:31:16;7.70;99.90
10828;DHT22;5467;59.334;13.512;2023-02-28T11:33:47;7.80;99.90
10828;DHT22;5467;59.334;13.512;2023-02-28T11:36:19;7.80;99.90
10828;DHT22;5467;59.334;13.512;2023-02-28T11:38:48;7.80;99.90
10828;DHT22;5467;59.334;13.512;2023-02-28T11:41:34;7.90;99.90
10828;DHT22;5467;59.334;13.512;2023-02-28T11:44:22;7.90;99.90
10828;DHT22;5467;59.334;13.512;2023-02-28T11:46:52;7.90;99.90
10828;DHT22;5467;59.334;13.512;2023-02-28T11:49:31;7.90;99.90
10828;DHT22;5467;59.334;13.512;2023-02-28T11:52:02;8.00;99.90
10828;DHT22;5467;59.334;13.512;2023-02-28T11:54:53;8.10;99.90
10828;DHT22;5467;59.334;13.512;2023-02-28T11:57:33;8.10;99.90
10828;DHT22;5467;59.334;13.512;2023-02-28T12:00:07;8.30;99.90
10828;DHT22;5467;59.334;13.512;2023-02-28T12:02:52;8.40;99.90
10828;DHT22;5467;59.334;13.512;2023-02-28T12:05:29;8.40;99.90
10828;DHT22;5467;59.334;13.512;2023-02-28T12:08:15;8.40;99.90
10828;DHT22;5467;59.334;13.512;2023-02-28T12:10:58;8.50;99.90
10828;DHT22;5467;59.334;13.512;2023-02-28T12:13:33;8.70;99.90
10828;DHT22;5467;59.334;13.512;2023-02-28T12:16:32;8.60;99.90
10828;DHT22;5467;59.334;13.512;2023-02-28T12:19:09;8.70;99.90
10828;DHT22;5467;59.334;13.512;2023-02-28T12:21:53;8.80;99.90
10828;DHT22;5467;59.334;13.512;2023-02-28T12:24:39;8.70;99.90
10828;DHT22;5467;59.334;13.512;2023-02-28T12:27:13;8.70;99.90
10828;DHT22;5467;59.334;13.512;2023-02-28T12:29:47;8.80;99.90
10828;DHT22;5467;59.334;13.512;2023-02-28T12:32:19;8.80;99.90
10828;DHT22;5467;59.334;13.512;2023-02-28T12:34:50;8.80;99.90
10828;DHT22;5467;59.334;13.512;2023-02-28T12:37:24;8.80;99.90
10828;DHT22;5467;59.334;13.512;2023-02-28T12:39:56;8.90;99.90
10828;DHT22;5467;59.334;13.512;2023-02-28T12:42:30;8.90;99.90
10828;DHT22;5467;59.334;13.512;2023-02-28T12:45:01;8.90;99.90
10828;DHT22;5467;59.334;13.512;2023-02-28T12:47:29;8.90;99.90
10828;DHT22;5467;59.334;13.512;2023-02-28T12:49:59;8.90;99.90
10828;DHT22;5467;59.334;13.512;2023-02-28T12:52:31;9.00;99.90
10828;DHT22;5467;59.334;13.512;2023-02-28T12:55:07;8.90;99.90
10828;DHT22;5467;59.334;13.512;2023-02-28T12:57:43;9.00;99.90
10828;DHT22;5467;59.334;13.512;2023-02-28T13:00:18;9.10;99.90
10828;DHT22;5467;59.334;13.512;2023-02-28T13:03:11;9.00;99.90
10828;DHT22;5467;59.334;13.512;2023-02-28T13:06:09;9.00;99.90
10828;DHT22;5467;59.334;13.512;2023-02-28T13:09:04;9.00;99.90
10828;DHT22;5467;59.334;13.512;2023-02-28T13:11:38;9.10;99.90
10828;DHT22;5467;59.334;13.512;2023-02-28T13:14:20;9.10;99.90
10828;DHT22;5467;59.334;13.512;2023-02-28T13:16:56;9.10;99.90
10828;DHT22;5467;59.334;13.512;2023-02-28T13:19:26;9.00;99.90
10828;DHT22;5467;59.334;13.512;2023-02-28T13:21:54;9.10;99.90
10828;DHT22;5467;59.334;13.512;2023-02-28T13:24:43;9.20;99.90
10828;DHT22;5467;59.334;13.512;2023-02-28T13:27:25;9.30;99.90
10828;DHT22;5467;59.334;13.512;2023-02-28T13:30:00;9.30;99.90
10828;DHT22;5467;59.334;13.512;2023-02-28T13:32:36;9.30;99.90
10828;DHT22;5467;59.334;13.512;2023-02-28T13:38:35;9.40;99.90
10828;DHT22;5467;59.334;13.512;2023-02-28T13:44:19;9.40;99.90
10828;DHT22;5467;59.334;13.512;2023-02-28T13:47:22;9.40;99.90
10828;DHT22;5467;59.334;13.512;2023-02-28T13:49:51;9.30;99.90
10828;DHT22;5467;59.334;13.512;2023-02-28T13:52:22;9.40;99.90
10828;DHT22;5467;59.334;13.512;2023-02-28T13:55:09;9.40;99.90
10828;DHT22;5467;59.334;13.512;2023-02-28T13:57:54;9.30;99.90
10828;DHT22;5467;59.334;13.512;2023-02-28T14:00:35;9.30;99.90
10828;DHT22;5467;59.334;13.512;2023-02-28T14:03:34;9.20;99.90
10828;DHT22;5467;59.334;13.512;2023-02-28T14:06:23;9.10;99.90
10828;DHT22;5467;59.334;13.512;2023-02-28T14:08:55;8.90;99.90
10828;DHT22;5467;59.334;13.512;2023-02-28T14:11:27;8.90;99.90
10828;DHT22;5467;59.334;13.512;2023-02-28T14:13:55;8.90;99.90
10828;DHT22;5467;59.334;13.512;2023-02-28T14:16:24;8.80;99.90
10828;DHT22;5467;59.334;13.512;2023-02-28T14:18:57;8.80;99.90
10828;DHT22;5467;59.334;13.512;2023-02-28T14:21:27;8.80;99.90
10828;DHT22;5467;59.334;13.512;2023-02-28T14:30:15;8.60;99.90
10828;DHT22;5467;59.334;13.512;2023-02-28T14:32:54;8.60;99.90
10828;DHT22;5467;59.334;13.512;2023-02-28T14:35:43;8.60;99.90
10828;DHT22;5467;59.334;13.512;2023-02-28T14:38:16;8.60;99.90
10828;DHT22;5467;59.334;13.512;2023-02-28T14:40:47;8.60;99.90
10828;DHT22;5467;59.334;13.512;2023-02-28T14:43:20;8.60;99.90
10828;DHT22;5467;59.334;13.512;2023-02-28T14:45:51;8.50;99.90
10828;DHT22;5467;59.334;13.512;2023-02-28T14:48:20;8.40;99.90
10828;DHT22;5467;59.334;13.512;2023-02-28T14:50:52;8.40;99.90
10828;DHT22;5467;59.334;13.512;2023-02-28T14:53:21;8.40;99.90
10828;DHT22;5467;59.334;13.512;2023-02-28T14:55:49;8.30;99.90
10828;DHT22;5467;59.334;13.512;2023-02-28T14:58:23;8.30;99.90
10828;DHT22;5467;59.334;13.512;2023-02-28T15:00:53;8.20;99.90
10828;DHT22;5467;59.334;13.512;2023-02-28T15:03:23;8.20;99.90
10828;DHT22;5467;59.334;13.512;2023-02-28T15:05:56;8.20;99.90
10828;DHT22;5467;59.334;13.512;2023-02-28T15:08:23;8.10;99.90
10828;DHT22;5467;59.334;13.512;2023-02-28T15:10:54;8.10;99.90
10828;DHT22;5467;59.334;13.512;2023-02-28T15:13:22;8.10;99.90
10828;DHT22;5467;59.334;13.512;2023-02-28T15:15:53;8.10;99.90
10828;DHT22;5467;59.334;13.512;2023-02-28T15:18:27;8.20;99.90
10828;DHT22;5467;59.334;13.512;2023-02-28T15:21:01;8.20;99.90
10828;DHT22;5467;59.334;13.512;2023-02-28T15:23:30;8.10;99.90
10828;DHT22;5467;59.334;13.512;2023-02-28T15:25:58;8.10;99.90
10828;DHT22;5467;59.334;13.512;2023-02-28T15:28:25;8.10;99.90
10828;DHT22;5467;59.334;13.512;2023-02-28T15:30:56;8.10;99.90
10828;DHT22;5467;59.334;13.512;2023-02-28T15:33:26;8.00;99.90
10828;DHT22;5467;59.334;13.512;2023-02-28T15:36:06;8.00;99.90
10828;DHT22;5467;59.334;13.512;2023-02-28T15:38:35;7.90;99.90
10828;DHT22;5467;59.334;13.512;2023-02-28T15:41:03;7.90;99.90
10828;DHT22;5467;59.334;13.512;2023-02-28T15:43:35;7.80;99.90
10828;DHT22;5467;59.334;13.512;2023-02-28T15:46:04;7.80;99.90
10828;DHT22;5467;59.334;13.512;2023-02-28T15:48:35;7.80;99.90
10828;DHT22;5467;59.334;13.512;2023-02-28T15:51:08;7.80;99.90
10828;DHT22;5467;59.334;13.512;2023-02-28T15:53:38;7.70;99.90
10828;DHT22;5467;59.334;13.512;2023-02-28T15:56:22;7.60;99.90
10828;DHT22;5467;59.334;13.512;2023-02-28T15:58:50;7.50;99.90
10828;DHT22;5467;59.334;13.512;2023-02-28T16:01:23;7.60;99.90
10828;DHT22;5467;59.334;13.512;2023-02-28T16:03:53;7.60;99.90
10828;DHT22;5467;59.334;13.512;2023-02-28T16:06:35;7.60;99.90
10828;DHT22;5467;59.334;13.512;2023-02-28T16:09:05;7.40;99.90
10828;DHT22;5467;59.334;13.512;2023-02-28T16:11:36;7.50;99.90
10828;DHT22;5467;59.334;13.512;2023-02-28T16:14:04;7.50;99.90
10828;DHT22;5467;59.334;13.512;2023-02-28T16:16:32;7.50;99.90
10828;DHT22;5467;59.334;13.512;2023-02-28T16:19:00;7.50;99.90
10828;DHT22;5467;59.334;13.512;2023-02-28T16:21:29;7.40;99.90
10828;DHT22;5467;59.334;13.512;2023-02-28T16:23:56;7.30;99.90
10828;DHT22;5467;59.334;13.512;2023-02-28T16:26:24;7.30;99.90
10828;DHT22;5467;59.334;13.512;2023-02-28T16:28:53;7.10;99.90
10828;DHT22;5467;59.334;13.512;2023-02-28T16:31:21;6.90;99.90
10828;DHT22;5467;59.334;13.512;2023-02-28T16:33:48;6.80;99.90
10828;DHT22;5467;59.334;13.512;2023-02-28T16:36:16;6.70;99.90
10828;DHT22;5467;59.334;13.512;2023-02-28T16:38:45;6.80;99.90
10828;DHT22;5467;59.334;13.512;2023-02-28T16:41:14;6.70;99.90
10828;DHT22;5467;59.334;13.512;2023-02-28T16:43:46;6.70;99.90
10828;DHT22;5467;59.334;13.512;2023-02-28T16:46:14;6.70;99.90
10828;DHT22;5467;59.334;13.512;2023-02-28T16:48:42;6.70;99.90
10828;DHT22;5467;59.334;13.512;2023-02-28T16:51:12;6.70;99.90
10828;DHT22;5467;59.334;13.512;2023-02-28T16:53:39;6.70;99.90
10828;DHT22;5467;59.334;13.512;2023-02-28T16:56:14;6.70;99.90
10828;DHT22;5467;59.334;13.512;2023-02-28T16:58:42;6.60;99.90
10828;DHT22;5467;59.334;13.512;2023-02-28T17:01:09;6.60;99.90
10828;DHT22;5467;59.334;13.512;2023-02-28T17:03:36;6.60;99.90